createdAt,value
2023-06-22T00:02:56.773Z,37.40
2023-06-22T00:08:00.325Z,39.17
2023-06-22T00:13:07.729Z,36.78
2023-06-22T00:18:12.710Z,36.88
2023-06-22T00:23:17.276Z,34.63
2023-06-22T00:28:22.672Z,36.88
2023-06-22T00:33:26.632Z,34.60
2023-06-22T00:38:30.114Z,34.78
2023-06-22T00:43:35.495Z,32.83
2023-06-22T00:48:39.480Z,34.60
2023-06-22T00:53:44.375Z,35.17
2023-06-22T00:58:49.809Z,34.22
2023-06-22T01:03:53.790Z,31.77
2023-06-22T01:09:06.451Z,32.10
2023-06-22T01:14:18.124Z,30.95
2023-06-22T01:19:36.694Z,32.25
2023-06-22T01:24:57.503Z,29.92
2023-06-22T01:30:05.827Z,29.35
2023-06-22T01:35:11.469Z,30.15
2023-06-22T01:40:16.604Z,27.05
2023-06-22T01:45:22.252Z,27.50
2023-06-22T01:50:26.509Z,25.88
2023-06-22T01:55:30.480Z,27.95
2023-06-22T02:00:41.083Z,30.25
2023-06-22T02:05:50.760Z,34.13
2023-06-22T02:10:55.638Z,35.00
2023-06-22T02:16:00.902Z,31.08
2023-06-22T02:21:05.032Z,27.63
2023-06-22T02:26:08.538Z,23.77
2023-06-22T02:31:13.969Z,21.98
2023-06-22T02:36:17.759Z,25.70
2023-06-22T02:41:21.523Z,19.90
2023-06-22T02:46:26.468Z,17.52
2023-06-22T02:51:30.229Z,17.52
2023-06-22T02:56:33.754Z,24.23
2023-06-22T03:01:41.429Z,30.63
2023-06-22T03:06:45.224Z,21.25
2023-06-22T03:11:48.576Z,24.25
2023-06-22T03:16:53.430Z,21.65
2023-06-22T03:21:57.041Z,18.23
2023-06-22T03:27:01.556Z,14.63
2023-06-22T03:32:08.134Z,14.35
2023-06-22T03:37:12.152Z,13.68
2023-06-22T03:42:15.562Z,17.20
2023-06-22T03:47:20.742Z,14.27
2023-06-22T03:52:24.500Z,12.10
2023-06-22T03:57:28.389Z,13.35
2023-06-22T04:02:33.256Z,12.95
2023-06-22T04:07:38.358Z,12.48
2023-06-22T04:12:41.796Z,12.98
2023-06-22T04:17:46.880Z,12.48
2023-06-22T04:22:51.800Z,11.73
2023-06-22T04:27:55.546Z,9.45
2023-06-22T04:33:00.454Z,10.30
2023-06-22T04:38:04.784Z,12.27
2023-06-22T04:43:08.299Z,10.27
2023-06-22T04:48:17.601Z,11.07
2023-06-22T04:53:21.181Z,8.13
2023-06-22T04:58:28.236Z,10.98
2023-06-22T05:03:33.188Z,10.73
2023-06-22T05:08:36.824Z,9.70
2023-06-22T05:13:40.309Z,10.98
2023-06-22T05:18:45.989Z,8.50
2023-06-22T05:23:49.636Z,8.60
2023-06-22T05:28:53.221Z,11.25
2023-06-22T05:33:58.400Z,11.98
2023-06-22T05:39:01.882Z,7.65
2023-06-22T05:44:05.647Z,9.80
2023-06-22T05:49:10.471Z,8.13
2023-06-22T05:54:15.193Z,9.75
2023-06-22T05:59:18.990Z,7.13
2023-06-22T06:04:24.485Z,8.13
2023-06-22T06:09:28.515Z,8.27
2023-06-22T06:14:32.003Z,6.82
2023-06-22T06:19:37.089Z,8.00
2023-06-22T06:24:40.672Z,7.97
2023-06-22T06:29:44.256Z,9.48
2023-06-22T06:34:49.182Z,6.85
2023-06-22T06:39:52.595Z,10.23
2023-06-22T06:44:56.509Z,7.72
2023-06-22T06:50:01.794Z,7.97
2023-06-22T06:55:10.391Z,10.98
2023-06-22T07:00:16.344Z,7.25
2023-06-22T07:05:21.414Z,6.88
2023-06-22T07:10:25.015Z,8.60
2023-06-22T07:15:28.582Z,7.30
2023-06-22T07:20:33.716Z,11.98
2023-06-22T07:25:37.362Z,8.07
2023-06-22T07:30:40.828Z,9.80
2023-06-22T07:35:45.977Z,10.30
2023-06-22T07:40:50.157Z,12.70
2023-06-22T07:45:54.651Z,9.23
2023-06-22T07:50:59.625Z,7.25
2023-06-22T07:56:08.209Z,8.85
2023-06-22T08:01:12.354Z,11.23
2023-06-22T08:06:17.506Z,7.03
2023-06-22T08:11:20.997Z,7.63
2023-06-22T08:16:24.549Z,8.80
2023-06-22T08:21:29.568Z,6.50
2023-06-22T08:26:37.208Z,8.43
2023-06-22T08:31:40.682Z,6.80
2023-06-22T08:36:46.240Z,7.20
2023-06-22T08:41:49.852Z,8.50
2023-06-22T08:46:53.602Z,9.73
2023-06-22T08:51:58.758Z,12.77
2023-06-22T08:57:02.334Z,8.65
2023-06-22T09:02:06.834Z,7.50
2023-06-22T09:07:13.004Z,10.25
2023-06-22T09:12:16.406Z,7.95
2023-06-22T09:17:20.035Z,10.20
2023-06-22T09:22:30.171Z,8.68
2023-06-22T09:27:33.724Z,6.70
2023-06-22T09:32:37.177Z,6.65
2023-06-22T09:37:42.461Z,5.45
2023-06-22T09:42:45.982Z,8.15
2023-06-22T09:47:49.444Z,7.75
2023-06-22T09:52:56.294Z,7.60
2023-06-22T09:57:59.912Z,13.32
2023-06-22T10:03:03.924Z,20.67
2023-06-22T10:08:11.133Z,7.63
2023-06-22T10:13:14.672Z,6.22
2023-06-22T10:18:18.423Z,12.15
2023-06-22T10:23:23.416Z,5.72
2023-06-22T10:28:26.904Z,5.55
2023-06-22T10:33:30.363Z,8.00
2023-06-22T10:38:35.299Z,9.30
2023-06-22T10:43:38.826Z,7.07
2023-06-22T10:48:42.249Z,8.02
2023-06-22T10:53:47.053Z,5.80
2023-06-22T10:58:50.570Z,8.50
2023-06-22T11:03:54.284Z,7.50
2023-06-22T11:09:06.608Z,6.38
2023-06-22T11:14:16.083Z,6.20
2023-06-22T11:19:20.052Z,10.82
2023-06-22T11:24:25.141Z,6.53
2023-06-22T11:29:37.351Z,8.10
2023-06-22T11:34:41.274Z,7.47
2023-06-22T11:39:53.155Z,8.23
2023-06-22T11:44:57.782Z,5.95
2023-06-22T11:50:02.787Z,5.88
2023-06-22T11:55:10.074Z,7.15
2023-06-22T12:00:18.232Z,6.28
2023-06-22T12:05:23.332Z,6.20
2023-06-22T12:10:30.153Z,8.70
2023-06-22T12:15:34.154Z,8.73
2023-06-22T12:20:37.796Z,7.18
2023-06-22T12:25:42.840Z,7.47
2023-06-22T12:30:46.711Z,8.52
2023-06-22T12:35:51.283Z,6.28
2023-06-22T12:40:56.196Z,7.88
2023-06-22T12:45:59.641Z,6.80
2023-06-22T12:51:03.717Z,8.55
2023-06-22T12:56:08.848Z,6.35
2023-06-22T13:01:12.781Z,7.05
2023-06-22T13:06:16.884Z,6.07
2023-06-22T13:11:20.680Z,8.88
2023-06-22T13:16:25.791Z,10.82
2023-06-22T13:21:29.440Z,6.68
2023-06-22T13:26:33.077Z,7.30
2023-06-22T13:31:37.903Z,11.93
2023-06-22T13:36:41.318Z,8.80
2023-06-22T13:41:45.043Z,7.82
2023-06-22T13:46:49.929Z,8.07
2023-06-22T13:51:53.419Z,13.05
2023-06-22T13:56:57.046Z,8.05
2023-06-22T14:02:02.168Z,7.30
2023-06-22T14:07:05.809Z,8.38
2023-06-22T14:12:10.077Z,6.88
2023-06-22T14:17:15.078Z,8.73
2023-06-22T14:22:18.543Z,11.50
2023-06-22T14:27:22.107Z,7.43
2023-06-22T14:32:27.306Z,7.53
2023-06-22T14:37:30.758Z,7.03
2023-06-22T14:42:34.724Z,8.35
2023-06-22T14:47:39.791Z,7.65
2023-06-22T14:52:43.649Z,10.10
2023-06-22T14:57:47.168Z,9.77
2023-06-22T15:02:52.842Z,9.80
2023-06-22T15:07:56.287Z,8.05
2023-06-22T15:12:59.724Z,8.48
2023-06-22T15:18:05.384Z,10.60
2023-06-22T15:23:10.958Z,9.50
2023-06-22T15:28:14.633Z,7.40
2023-06-22T15:33:20.074Z,11.80
2023-06-22T15:38:23.568Z,9.15
2023-06-22T15:43:27.149Z,11.88
2023-06-22T15:48:32.042Z,8.05
2023-06-22T15:53:35.674Z,10.95
2023-06-22T15:58:39.828Z,12.00
2023-06-22T16:03:44.860Z,9.45
2023-06-22T16:08:48.454Z,12.25
2023-06-22T16:13:51.872Z,13.93
2023-06-22T16:18:56.854Z,12.63
2023-06-22T16:24:00.395Z,19.00
2023-06-22T16:29:04.204Z,12.70
2023-06-22T16:34:09.184Z,12.80
2023-06-22T16:39:12.674Z,58.85
2023-06-22T16:44:16.361Z,12.63
2023-06-22T16:49:21.308Z,12.77
2023-06-22T16:54:25.630Z,14.65
2023-06-22T16:59:29.630Z,13.68
2023-06-22T17:04:37.011Z,10.38
2023-06-22T17:09:42.765Z,12.43
2023-06-22T17:14:46.852Z,12.68
2023-06-22T17:19:52.404Z,10.02
2023-06-22T17:24:56.680Z,11.00
2023-06-22T17:30:08.962Z,11.75
2023-06-22T17:35:14.116Z,11.43
2023-06-22T17:40:18.669Z,8.15
2023-06-22T17:45:25.011Z,14.30
2023-06-22T17:50:30.332Z,9.38
2023-06-22T17:55:35.999Z,12.38
2023-06-22T18:00:39.490Z,10.13
2023-06-22T18:05:48.651Z,9.65
2023-06-22T18:10:52.412Z,11.05
2023-06-22T18:15:56.170Z,11.90
2023-06-22T18:21:04.423Z,12.85
2023-06-22T18:26:08.174Z,9.15
2023-06-22T18:31:12.168Z,11.02
2023-06-22T18:36:22.305Z,10.50
2023-06-22T18:41:27.165Z,9.30
2023-06-22T18:46:38.204Z,10.98
2023-06-22T18:51:56.475Z,9.88
2023-06-22T18:57:02.234Z,11.43
2023-06-22T19:02:06.115Z,11.20
2023-06-22T19:07:13.255Z,11.05
2023-06-22T19:12:21.510Z,13.70
2023-06-22T19:17:25.349Z,9.15
2023-06-22T19:22:46.917Z,10.45
2023-06-22T19:27:55.931Z,10.40
2023-06-22T19:32:59.867Z,11.10
2023-06-22T19:38:04.800Z,9.95
2023-06-22T19:43:09.134Z,9.60
2023-06-22T19:48:13.056Z,9.13
2023-06-22T19:53:18.435Z,11.85
2023-06-22T19:58:25.013Z,10.93
2023-06-22T20:03:30.231Z,12.65
2023-06-22T20:08:45.064Z,11.05
2023-06-22T20:13:49.922Z,11.77
2023-06-22T20:19:08.119Z,11.13
2023-06-22T20:24:14.576Z,9.88
2023-06-22T20:29:28.444Z,11.98
2023-06-22T20:34:36.509Z,9.70
2023-06-22T20:39:41.594Z,13.00
2023-06-22T20:44:51.721Z,11.02
2023-06-22T20:49:59.044Z,10.77
2023-06-22T20:55:04.227Z,7.55
2023-06-22T21:00:09.464Z,8.07
2023-06-22T21:05:13.058Z,7.95
2023-06-22T21:10:18.194Z,8.23
2023-06-22T21:15:23.001Z,8.23
2023-06-22T21:20:26.523Z,10.25
2023-06-22T21:25:31.789Z,7.45
2023-06-22T21:30:35.509Z,9.10
2023-06-22T21:35:39.219Z,8.88
2023-06-22T21:40:44.232Z,8.60
2023-06-22T21:45:48.278Z,8.07
2023-06-22T21:50:52.040Z,10.02
2023-06-22T21:55:56.940Z,7.20
2023-06-22T22:01:01.237Z,8.93
2023-06-22T22:06:04.859Z,6.95
2023-06-22T22:11:09.702Z,11.07
2023-06-22T22:16:13.064Z,6.32
2023-06-22T22:21:16.636Z,7.53
2023-06-22T22:26:21.611Z,7.45
2023-06-22T22:31:25.085Z,7.85
2023-06-22T22:36:28.623Z,13.43
2023-06-22T22:41:33.496Z,15.52
2023-06-22T22:46:36.903Z,7.57
2023-06-22T22:51:40.315Z,11.35
2023-06-22T22:56:45.261Z,6.97
2023-06-22T23:01:48.951Z,7.20
2023-06-22T23:06:52.696Z,7.00
2023-06-22T23:11:57.539Z,7.13
2023-06-22T23:17:00.960Z,7.35
2023-06-22T23:22:04.937Z,6.90
2023-06-22T23:27:10.766Z,8.10
2023-06-22T23:32:14.861Z,6.22
2023-06-22T23:37:18.929Z,6.50
2023-06-22T23:42:23.901Z,6.38
2023-06-22T23:47:30.322Z,8.05
2023-06-22T23:52:33.842Z,7.38
2023-06-22T23:57:38.979Z,7.07
